ESDF/RNB METAR and TAF weather

Enter ICAO airport designator
Station Type Date Time Source
ESDF METAR 2020/09/22 07:50 UTC NOAA

ESDF 220750Z VRB01KT 9999 FEW002 SCT200 12/12 Q1012


Station Type Date Time Source
ESDF Decoded METAR 2020/09/22 07:50 UTC NOAA

Ronneby, Sweden (ESDF) 56-16N 015-17E 74M
Sep 22, 2020 - 03:50 AM EDT / 2020.09.22 0750 UTC
Wind: Variable at 1 MPH (1 KT):0
Visibility: greater than 7 mile(s):0
Sky conditions: partly cloudy
Temperature: 53 F (12 C)
Dew Point: 53 F (12 C)
Relative Humidity: 100%
Pressure (altimeter): 29.88 in. Hg (1012 hPa)
ob: ESDF 220750Z VRB01KT 9999 FEW002 SCT200 12/12 Q1012
cycle: 8

Station Type Date Time Source
ESDF TAF 2018/05/29 12:27 UTC NOAA

TAF TAF ESDF 291425Z 2912/2924 07008KT CAVOK
RMK MIL

Example: see airport list